createdAt,value
2017-12-12T07:24:15.493Z,0.90
2017-12-12T07:41:30.977Z,1.00
2017-12-12T07:55:44.994Z,1.20
2017-12-12T09:29:38.539Z,1.90
2017-12-12T09:32:26.570Z,1.60
2017-12-12T09:40:58.535Z,1.60
2017-12-12T09:46:21.396Z,1.60
2017-12-12T09:48:54.228Z,1.60
2017-12-12T09:51:23.975Z,1.50
2017-12-12T09:53:51.658Z,1.70
2017-12-12T09:56:19.317Z,1.60
2017-12-12T09:58:48.378Z,1.70
2017-12-12T10:01:20.057Z,1.80
2017-12-12T10:03:53.968Z,1.80
2017-12-12T10:06:22.062Z,1.70
2017-12-12T10:08:49.841Z,1.80
2017-12-12T10:11:24.792Z,1.90
2017-12-12T10:13:52.911Z,1.80
2017-12-12T10:22:21.880Z,2.00
2017-12-12T10:25:14.726Z,1.90
2017-12-12T10:30:49.315Z,1.80
2017-12-12T11:48:56.063Z,2.70
2017-12-12T12:25:36.026Z,2.10
2017-12-12T12:28:03.585Z,2.20
2017-12-12T12:30:31.159Z,2.10
2017-12-12T12:32:58.766Z,2.20
2017-12-12T12:35:26.353Z,2.20
2017-12-12T12:37:53.950Z,2.30
2017-12-12T12:40:21.513Z,2.30
2017-12-12T12:42:49.082Z,2.40
2017-12-12T12:45:18.378Z,2.40
2017-12-12T12:47:46.790Z,4.70
2017-12-12T12:50:14.402Z,2.40
2017-12-12T12:52:41.968Z,2.40
2017-12-12T12:55:09.559Z,2.30
2017-12-12T12:57:37.127Z,2.30
2017-12-12T13:00:04.703Z,2.40
2017-12-12T13:02:32.284Z,2.30
2017-12-12T13:04:59.955Z,2.20
2017-12-12T13:07:27.537Z,2.40
2017-12-12T13:09:55.094Z,2.20
2017-12-12T13:12:23.423Z,2.30
2017-12-12T13:14:51.006Z,2.30
2017-12-12T13:17:18.547Z,2.40
2017-12-12T13:19:46.293Z,2.40
2017-12-12T13:22:13.854Z,2.40
2017-12-12T13:24:41.390Z,2.50
2017-12-12T15:31:06.420Z,2.00
2017-12-12T15:33:34.495Z,1.80
2017-12-12T15:36:02.207Z,1.80
2017-12-12T15:38:29.710Z,1.80
2017-12-12T15:40:57.843Z,2.00
2017-12-12T15:43:25.346Z,1.80
2017-12-12T15:45:52.787Z,1.80
2017-12-12T15:48:20.248Z,1.80
2017-12-12T15:50:47.691Z,1.80
2017-12-12T15:53:15.158Z,1.80
2017-12-12T15:55:42.614Z,1.80
2017-12-12T15:58:10.195Z,2.00
2017-12-12T16:00:39.234Z,1.80
2017-12-12T16:03:06.702Z,1.80
2017-12-12T16:05:34.258Z,1.80
2017-12-12T16:08:01.708Z,1.80
2017-12-12T16:10:29.155Z,1.80
2017-12-12T16:12:56.647Z,2.00
2017-12-12T16:15:24.091Z,1.90
2017-12-12T16:17:51.548Z,1.80
2017-12-12T16:20:18.982Z,1.90
2017-12-12T16:22:46.443Z,1.90
2017-12-12T16:25:13.932Z,1.90
2017-12-12T16:27:41.370Z,1.80
2017-12-12T16:30:08.811Z,2.00
2017-12-12T16:32:36.269Z,1.90
2017-12-12T16:35:03.696Z,2.00
2017-12-12T16:37:31.139Z,1.80
2017-12-12T16:39:59.360Z,1.80
2017-12-12T16:42:26.799Z,1.80
2017-12-12T16:44:54.235Z,1.80
2017-12-12T16:47:21.686Z,1.80
2017-12-12T16:49:49.121Z,1.80
2017-12-12T16:52:17.346Z,1.90
2017-12-12T16:54:44.793Z,1.90
2017-12-12T16:57:12.237Z,1.90
2017-12-12T16:59:39.696Z,1.90
2017-12-12T17:02:07.131Z,1.90
2017-12-12T17:04:35.347Z,1.90
2017-12-12T17:07:02.786Z,1.70
2017-12-12T17:09:30.276Z,1.80
2017-12-12T17:11:57.711Z,1.80
2017-12-12T17:14:25.154Z,1.90
2017-12-12T17:16:52.612Z,1.80
2017-12-12T17:19:20.097Z,1.80
2017-12-12T17:21:47.535Z,1.80
2017-12-12T17:24:14.986Z,2.00
2017-12-12T17:26:42.477Z,1.90
2017-12-12T17:29:09.963Z,1.80
2017-12-12T17:31:38.162Z,1.80
2017-12-12T17:34:05.633Z,1.80
2017-12-12T17:36:33.053Z,1.80
2017-12-12T17:39:00.498Z,1.80
2017-12-12T17:41:28.711Z,1.80
2017-12-12T17:43:56.173Z,1.70
2017-12-12T17:46:23.610Z,1.80
2017-12-12T17:48:51.060Z,1.70
2017-12-12T17:51:18.511Z,1.80
2017-12-12T17:53:45.954Z,1.80
2017-12-12T17:56:13.408Z,1.80
2017-12-12T17:58:40.852Z,1.80
2017-12-12T18:01:09.060Z,1.90
2017-12-12T18:03:36.503Z,1.80
2017-12-12T18:06:03.943Z,1.80
2017-12-12T18:08:32.161Z,1.90
2017-12-12T18:10:59.604Z,1.80
2017-12-12T18:13:27.067Z,1.80
2017-12-12T18:15:54.503Z,1.80
2017-12-12T18:18:21.976Z,1.90
2017-12-12T18:20:49.429Z,1.80
2017-12-12T18:23:16.959Z,1.80
2017-12-12T18:25:45.161Z,1.80
2017-12-12T18:28:12.600Z,1.80
2017-12-12T18:30:40.157Z,1.80
2017-12-12T18:33:08.343Z,1.70
2017-12-12T18:35:35.797Z,1.70
2017-12-12T18:38:03.241Z,1.80
2017-12-12T18:40:30.691Z,1.80
2017-12-12T18:42:58.132Z,1.60
2017-12-12T18:45:27.212Z,1.70
2017-12-12T18:47:54.650Z,1.60
2017-12-12T18:50:22.318Z,1.80
2017-12-12T18:52:49.735Z,1.60
2017-12-12T18:55:17.468Z,1.60
2017-12-12T18:57:45.351Z,1.60
2017-12-12T19:00:14.139Z,1.60
2017-12-12T19:02:41.529Z,1.60
2017-12-12T19:05:09.046Z,1.60
2017-12-12T19:07:37.314Z,1.50
2017-12-12T19:10:04.770Z,1.60
2017-12-12T19:12:33.654Z,1.40
2017-12-12T19:15:01.867Z,1.60
2017-12-12T19:17:29.298Z,1.50
2017-12-12T19:19:56.743Z,1.50
2017-12-12T19:22:24.186Z,1.50
2017-12-12T19:24:52.427Z,1.50
2017-12-12T19:27:19.857Z,1.50
2017-12-12T19:29:48.123Z,1.60
2017-12-12T19:32:15.672Z,1.50
2017-12-12T19:34:43.443Z,1.60
2017-12-12T19:37:11.072Z,1.50
2017-12-12T19:39:38.661Z,1.50
2017-12-12T19:42:06.082Z,1.40
2017-12-12T19:44:34.290Z,1.50
2017-12-12T19:47:01.786Z,1.60
2017-12-12T19:49:29.229Z,1.60
2017-12-12T19:51:56.685Z,1.60
2017-12-12T19:54:24.195Z,1.60
2017-12-12T19:56:52.408Z,1.50
2017-12-12T19:59:19.860Z,1.60
2017-12-12T20:01:47.402Z,1.50
2017-12-12T20:04:15.022Z,1.40
2017-12-12T20:06:42.526Z,1.40
2017-12-12T20:09:10.119Z,1.40
2017-12-12T20:11:37.567Z,1.40
2017-12-12T20:14:05.171Z,1.40
2017-12-12T20:16:32.643Z,1.50
2017-12-12T20:19:00.095Z,1.50
2017-12-12T20:21:27.542Z,1.60
2017-12-12T20:23:57.228Z,1.50
2017-12-12T20:26:26.352Z,1.50
2017-12-12T20:28:53.819Z,1.40
2017-12-12T20:31:21.275Z,1.50
2017-12-12T20:33:48.715Z,1.60
2017-12-12T20:36:16.314Z,1.60
2017-12-12T20:38:43.762Z,1.50
2017-12-12T20:41:11.710Z,1.70
2017-12-12T20:43:39.351Z,1.60
2017-12-12T20:46:06.809Z,1.60
2017-12-12T20:48:34.252Z,1.70
2017-12-12T20:51:02.476Z,1.60
2017-12-12T20:53:29.958Z,1.70
2017-12-12T20:55:57.411Z,1.70
2017-12-12T20:58:24.845Z,1.70
2017-12-12T21:00:52.296Z,1.70
2017-12-12T21:03:19.733Z,1.80
2017-12-12T21:05:47.292Z,1.80
2017-12-12T21:08:14.730Z,1.80
2017-12-12T21:10:42.355Z,1.80
2017-12-12T21:13:09.827Z,1.80
2017-12-12T21:15:37.264Z,1.80
2017-12-12T21:18:04.711Z,1.80
2017-12-12T21:20:32.154Z,1.80
2017-12-12T21:22:59.612Z,1.80
2017-12-12T21:25:27.046Z,1.70
2017-12-12T21:27:54.495Z,1.60
2017-12-12T21:30:21.934Z,1.70
2017-12-12T21:32:49.449Z,1.60
2017-12-12T21:35:16.891Z,1.80
2017-12-12T21:37:44.355Z,1.80
2017-12-12T21:40:11.888Z,1.80
2017-12-12T21:42:39.497Z,1.70
2017-12-12T21:45:06.945Z,1.80
2017-12-12T21:47:34.404Z,1.70
2017-12-12T21:50:01.875Z,1.70
2017-12-12T23:35:26.808Z,2.20
2017-12-12T23:39:00.844Z,2.10
